Time;durP1;ratioP1;P1;durP2;ratioP2;P2;SDS_P1;SDS_P2;PMS_P1;PMS_P2;Temp;Humidity;BMP_temperature;BMP_pressure;BME280_temperature;BME280_humidity;BME280_pressure;Samples;Min_cycle;Max_cycle;Signal;HPM_P1;HPM_P2
2021/03/05 00:01:28;;;;;;;20.27;9.65;;;6.70;99.90;;;;;;8359608;28;20036;-69
2021/03/05 00:05:29;;;;;;;14.10;8.90;;;6.70;99.90;;;;;;8347794;28;20025;-69
2021/03/05 00:09:29;;;;;;;13.80;8.70;;;6.60;99.90;;;;;;8365375;28;20037;-69
2021/03/05 00:13:30;;;;;;;14.70;8.75;;;6.70;99.90;;;;;;8347920;28;20029;-69
2021/03/05 00:17:31;;;;;;;13.25;8.50;;;6.70;99.90;;;;;;8365742;28;20055;-69
2021/03/05 00:21:31;;;;;;;13.55;8.73;;;6.80;99.90;;;;;;8365310;28;20021;-68
2021/03/05 00:25:32;;;;;;;13.40;7.88;;;6.60;99.90;;;;;;8345829;28;20065;-69
2021/03/05 00:29:32;;;;;;;12.05;7.32;;;6.60;99.90;;;;;;8345749;28;20032;-69
2021/03/05 00:33:33;;;;;;;14.98;8.10;;;6.50;99.90;;;;;;8363579;28;20029;-69
2021/03/05 00:37:34;;;;;;;12.88;7.95;;;6.50;99.90;;;;;;8364238;28;20025;-69
2021/03/05 00:41:35;;;;;;;13.38;7.68;;;6.50;99.90;;;;;;8364913;28;20055;-69
2021/03/05 00:45:36;;;;;;;14.70;8.35;;;6.60;99.90;;;;;;8364982;28;20021;-69
2021/03/05 00:49:37;;;;;;;13.30;8.07;;;6.60;99.90;;;;;;8364219;28;20029;-68
2021/03/05 00:53:37;;;;;;;18.05;8.00;;;6.60;99.90;;;;;;8346759;28;20372;-69
2021/03/05 00:57:40;;;;;;;12.02;7.95;;;6.60;99.90;;;;;;8364445;28;20116;-69
2021/03/05 01:01:40;;;;;;;13.88;8.07;;;6.60;99.90;;;;;;8364278;28;20103;-69
2021/03/05 01:05:41;;;;;;;12.00;7.30;;;6.50;99.90;;;;;;8363694;28;20075;-69
2021/03/05 01:09:41;;;;;;;13.80;7.78;;;6.60;99.90;;;;;;8363638;28;20029;-69
2021/03/05 01:13:42;;;;;;;12.38;7.40;;;6.50;99.90;;;;;;8363737;28;20044;-69
2021/03/05 01:17:43;;;;;;;12.95;7.20;;;6.50;99.90;;;;;;8363981;28;20032;-69
2021/03/05 01:21:43;;;;;;;13.27;7.18;;;6.50;99.90;;;;;;8345845;28;20090;-69
2021/03/05 01:25:44;;;;;;;12.38;7.15;;;6.60;99.90;;;;;;8363786;28;20025;-69
2021/03/05 01:29:44;;;;;;;12.73;7.47;;;6.60;99.90;;;;;;8363319;28;20075;-69
2021/03/05 01:33:45;;;;;;;13.80;7.00;;;6.70;99.90;;;;;;8363256;28;20025;-69
2021/03/05 01:37:46;;;;;;;12.65;7.50;;;6.70;99.90;;;;;;8362476;28;20033;-69
2021/03/05 01:41:46;;;;;;;12.25;7.45;;;6.70;99.90;;;;;;8362969;28;20032;-69
2021/03/05 01:45:48;;;;;;;12.10;8.20;;;6.50;99.90;;;;;;8363117;28;20037;-69
2021/03/05 01:49:48;;;;;;;11.93;7.32;;;6.50;99.90;;;;;;8362300;28;20024;-69
2021/03/05 01:53:50;;;;;;;14.88;8.27;;;6.50;99.90;;;;;;8362852;28;20109;-69
2021/03/05 01:57:50;;;;;;;16.23;8.75;;;6.50;99.90;;;;;;8362569;28;20033;-69
2021/03/05 02:01:51;;;;;;;15.60;8.57;;;6.40;99.90;;;;;;8362353;28;20032;-69
2021/03/05 02:05:52;;;;;;;12.18;7.82;;;6.40;99.90;;;;;;8331779;28;20068;-69
2021/03/05 02:09:52;;;;;;;15.57;8.63;;;6.30;99.90;;;;;;8311078;28;20093;-69
2021/03/05 02:13:55;;;;;;;15.45;8.10;;;6.30;99.90;;;;;;8329254;28;20524;-70
2021/03/05 02:17:59;;;;;;;12.27;8.52;;;6.30;99.90;;;;;;8329221;28;20021;-69
2021/03/05 02:22:31;;;;;;;16.15;9.68;;;6.40;99.90;;;;;;8332812;28;20055;-68
2021/03/05 02:26:59;;;;;;;15.38;8.07;;;6.20;99.90;;;;;;8372896;28;20032;-69
2021/03/05 02:31:23;;;;;;;14.55;8.70;;;6.40;99.90;;;;;;8379045;28;20024;-69
2021/03/05 02:35:30;;;;;;;15.88;8.90;;;6.40;99.90;;;;;;8347338;28;20037;-69
2021/03/05 02:39:46;;;;;;;14.52;9.82;;;6.30;99.90;;;;;;8359805;28;20017;-69
2021/03/05 02:43:47;;;;;;;14.88;8.90;;;6.30;99.90;;;;;;8361357;28;20025;-69
2021/03/05 02:47:53;;;;;;;15.90;9.38;;;6.30;99.90;;;;;;8361166;28;20033;-69
2021/03/05 02:51:56;;;;;;;15.55;9.88;;;6.30;99.90;;;;;;8360395;28;20024;-69
2021/03/05 02:56:06;;;;;;;17.60;10.27;;;6.20;99.90;;;;;;8343010;28;20025;-69
2021/03/05 03:00:08;;;;;;;16.50;10.07;;;6.40;99.90;;;;;;8360380;28;20033;-69
2021/03/05 03:04:09;;;;;;;11.80;6.43;;;6.40;99.90;;;;;;8360188;28;20024;-69
2021/03/05 03:08:10;;;;;;;15.82;9.45;;;6.30;99.90;;;;;;8359749;28;20032;-69
2021/03/05 03:12:14;;;;;;;14.38;8.70;;;6.30;99.90;;;;;;8360243;28;20044;-69
2021/03/05 03:16:18;;;;;;;18.88;9.15;;;6.20;99.90;;;;;;8360432;28;20086;-69
2021/03/05 03:20:21;;;;;;;16.65;9.32;;;6.20;99.90;;;;;;8360021;28;20035;-69
2021/03/05 03:24:21;;;;;;;13.55;8.82;;;6.20;99.90;;;;;;8360187;28;20059;-69
2021/03/05 03:28:22;;;;;;;11.85;6.55;;;6.10;99.90;;;;;;8342192;28;20075;-69
2021/03/05 03:32:23;;;;;;;12.48;7.22;;;6.10;99.90;;;;;;8359629;28;20499;-69
2021/03/05 03:36:24;;;;;;;13.77;7.75;;;6.10;99.90;;;;;;8359000;28;20032;-69
2021/03/05 03:40:25;;;;;;;11.55;6.78;;;6.10;99.90;;;;;;8359348;28;20025;-69
2021/03/05 03:44:25;;;;;;;13.73;7.38;;;6.10;99.90;;;;;;8359724;28;20033;-69
2021/03/05 03:48:27;;;;;;;12.27;7.20;;;6.10;99.90;;;;;;8359656;28;20021;-69
2021/03/05 03:52:39;;;;;;;13.38;7.85;;;6.00;99.90;;;;;;8358951;28;20071;-69
2021/03/05 03:56:42;;;;;;;15.18;8.40;;;6.00;99.90;;;;;;8359464;28;20092;-69
2021/03/05 04:00:44;;;;;;;16.48;8.93;;;6.10;99.90;;;;;;8359211;28;20021;-68
2021/03/05 04:04:46;;;;;;;14.23;7.88;;;6.10;99.90;;;;;;8341014;28;20515;-68
2021/03/05 04:08:49;;;;;;;13.90;8.60;;;6.10;99.90;;;;;;8354971;28;20070;-69
2021/03/05 04:12:50;;;;;;;13.48;7.95;;;6.10;99.90;;;;;;8328980;28;20040;-68
2021/03/05 04:16:55;;;;;;;14.10;8.45;;;6.20;99.90;;;;;;8339255;28;20491;-69
2021/03/05 04:20:59;;;;;;;16.13;8.30;;;6.10;99.90;;;;;;8339157;28;20030;-69
2021/03/05 04:25:01;;;;;;;13.73;8.57;;;6.10;99.90;;;;;;8358093;28;20041;-69
2021/03/05 04:29:01;;;;;;;18.25;9.65;;;6.00;99.90;;;;;;8340368;28;20064;-69
2021/03/05 04:33:02;;;;;;;16.65;9.05;;;6.10;99.90;;;;;;8358951;28;20391;-69
2021/03/05 04:37:03;;;;;;;15.15;8.73;;;6.00;99.90;;;;;;8357798;28;20029;-69
2021/03/05 04:41:03;;;;;;;12.60;7.25;;;6.00;99.90;;;;;;8357852;28;20499;-69
2021/03/05 04:45:05;;;;;;;21.23;12.95;;;6.00;99.90;;;;;;8357803;28;20033;-69
2021/03/05 04:49:07;;;;;;;29.35;15.57;;;5.90;99.90;;;;;;8360613;28;20025;-68
2021/03/05 04:53:08;;;;;;;11.57;5.78;;;5.50;99.90;;;;;;8364767;28;20044;-69
2021/03/05 04:57:08;;;;;;;15.98;9.40;;;5.30;99.90;;;;;;8364524;28;20028;-68
2021/03/05 05:01:09;;;;;;;23.42;12.80;;;5.10;99.90;;;;;;8363591;28;20033;-68
2021/03/05 05:05:11;;;;;;;20.85;11.38;;;4.90;99.90;;;;;;8354986;28;20071;-68
2021/03/05 05:09:11;;;;;;;22.45;12.23;;;4.80;99.90;;;;;;8372261;28;20505;-69
2021/03/05 05:13:12;;;;;;;21.73;12.02;;;4.70;99.90;;;;;;8370717;28;20087;-69
2021/03/05 05:17:13;;;;;;;23.52;12.57;;;4.60;99.90;;;;;;8362335;28;20029;-69
2021/03/05 05:21:13;;;;;;;18.35;10.95;;;4.50;99.90;;;;;;8345894;28;20403;-68
2021/03/05 05:25:14;;;;;;;18.50;10.23;;;4.40;99.90;;;;;;8362772;28;20098;-69
2021/03/05 05:29:15;;;;;;;21.58;11.50;;;4.40;99.90;;;;;;8366901;28;20403;-69
2021/03/05 05:33:16;;;;;;;10.25;5.65;;;4.30;99.90;;;;;;8376869;28;20024;-70
2021/03/05 05:37:17;;;;;;;17.27;9.73;;;4.30;99.90;;;;;;8374665;28;20029;-69
2021/03/05 05:41:22;;;;;;;18.30;10.32;;;4.20;99.90;;;;;;8371422;28;20664;-69
2021/03/05 05:45:23;;;;;;;20.83;12.02;;;4.10;99.90;;;;;;8360315;28;20766;-70
2021/03/05 05:49:25;;;;;;;11.13;6.35;;;4.20;99.90;;;;;;8360991;28;20055;-69
2021/03/05 05:53:31;;;;;;;18.17;9.98;;;4.10;99.90;;;;;;8361401;28;20030;-69
2021/03/05 05:57:37;;;;;;;19.17;10.95;;;4.00;99.90;;;;;;8360557;28;20025;-69
2021/03/05 06:01:39;;;;;;;19.48;10.98;;;4.00;99.90;;;;;;8361454;28;20029;-70
2021/03/05 06:05:39;;;;;;;5.43;2.95;;;4.00;99.90;;;;;;8361885;28;20074;-69
2021/03/05 06:09:40;;;;;;;16.63;9.55;;;4.10;99.90;;;;;;8361696;28;20028;-69
2021/03/05 06:13:40;;;;;;;12.73;7.38;;;4.10;99.90;;;;;;8341895;28;20033;-70
2021/03/05 06:17:46;;;;;;;6.15;3.67;;;4.00;99.90;;;;;;8328077;28;20504;-69
2021/03/05 06:21:47;;;;;;;14.48;7.63;;;4.00;99.90;;;;;;8311120;28;20030;-69
2021/03/05 06:25:48;;;;;;;13.40;8.07;;;4.00;99.90;;;;;;8311125;28;20406;-70
2021/03/05 06:29:49;;;;;;;9.27;5.97;;;3.90;99.90;;;;;;8328579;28;20063;-69
2021/03/05 06:34:01;;;;;;;10.88;6.72;;;4.00;99.90;;;;;;8341198;28;20024;-70
2021/03/05 06:38:02;;;;;;;8.90;5.00;;;3.80;99.90;;;;;;8360764;28;20025;-69
2021/03/05 06:42:13;;;;;;;10.05;5.90;;;4.00;99.90;;;;;;8336269;28;20540;-70
2021/03/05 06:46:27;;;;;;;9.77;6.20;;;4.00;99.90;;;;;;8333754;28;20025;-69
2021/03/05 06:50:28;;;;;;;8.95;3.85;;;4.10;99.90;;;;;;8340517;28;20024;-70
2021/03/05 06:54:31;;;;;;;9.35;6.00;;;4.20;99.90;;;;;;8324897;28;20037;-69
2021/03/05 06:58:32;;;;;;;10.00;6.15;;;4.20;99.90;;;;;;8325934;28;20033;-70
2021/03/05 07:02:33;;;;;;;9.07;5.78;;;4.00;99.90;;;;;;8322592;28;20487;-68
2021/03/05 07:06:34;;;;;;;11.07;5.00;;;4.00;99.90;;;;;;8356161;28;20028;-68
2021/03/05 07:10:35;;;;;;;8.52;5.30;;;4.00;99.90;;;;;;8338789;28;20174;-69
2021/03/05 07:14:37;;;;;;;6.47;3.97;;;3.90;99.90;;;;;;8357526;28;20029;-68
2021/03/05 07:18:38;;;;;;;5.53;3.60;;;4.00;99.90;;;;;;8336879;28;20573;-68
2021/03/05 07:22:38;;;;;;;4.88;3.60;;;3.80;99.90;;;;;;8357259;28;20107;-68
2021/03/05 07:26:44;;;;;;;4.68;3.38;;;3.70;99.90;;;;;;8342153;28;20558;-69
2021/03/05 07:30:48;;;;;;;3.67;2.50;;;3.60;99.90;;;;;;8315847;28;20025;-69
2021/03/05 07:34:59;;;;;;;4.55;3.33;;;3.60;99.90;;;;;;8329585;28;20029;-68
2021/03/05 07:39:04;;;;;;;3.80;3.15;;;3.50;99.90;;;;;;8359221;28;20548;-68
2021/03/05 07:43:06;;;;;;;4.22;3.20;;;3.50;99.90;;;;;;8356251;28;20056;-69
2021/03/05 07:47:15;;;;;;;5.10;3.17;;;3.60;99.90;;;;;;8352972;28;20025;-70
2021/03/05 07:51:18;;;;;;;5.45;3.45;;;3.60;99.90;;;;;;8338372;28;20032;-71
2021/03/05 07:55:38;;;;;;;4.35;3.00;;;3.70;99.90;;;;;;8357235;28;20024;-71
2021/03/05 07:59:42;;;;;;;4.78;3.08;;;3.80;99.90;;;;;;8356772;28;20029;-71
2021/03/05 08:03:53;;;;;;;4.30;3.00;;;3.70;99.90;;;;;;8352199;28;20033;-71
2021/03/05 08:08:07;;;;;;;4.72;3.42;;;3.90;99.90;;;;;;8353382;28;20017;-71
2021/03/05 08:12:42;;;;;;;5.32;3.25;;;4.00;99.90;;;;;;8337099;28;20025;-71
2021/03/05 08:16:42;;;;;;;4.55;3.22;;;4.00;99.90;;;;;;8343513;28;20480;-71
2021/03/05 08:20:43;;;;;;;3.72;2.53;;;4.00;99.90;;;;;;8357100;28;20032;-70
2021/03/05 08:24:44;;;;;;;2.75;2.08;;;4.10;99.90;;;;;;8335392;28;20024;-71
2021/03/05 08:28:46;;;;;;;2.92;1.73;;;4.10;99.90;;;;;;8361016;28;20024;-70
2021/03/05 08:32:52;;;;;;;3.55;2.40;;;4.00;99.90;;;;;;8345266;28;20028;-71
2021/03/05 08:36:53;;;;;;;3.67;2.10;;;3.70;99.90;;;;;;8329171;28;20391;-71
2021/03/05 08:40:56;;;;;;;3.10;2.25;;;3.90;99.90;;;;;;8335225;28;20112;-71
2021/03/05 08:45:22;;;;;;;3.13;2.20;;;4.10;99.90;;;;;;8363590;28;20519;-71
2021/03/05 08:49:24;;;;;;;2.17;1.80;;;4.20;99.90;;;;;;8362922;28;20045;-71
2021/03/05 08:53:25;;;;;;;3.58;1.95;;;4.00;99.90;;;;;;8362950;28;20549;-71
2021/03/05 08:57:25;;;;;;;3.38;2.47;;;3.80;99.90;;;;;;8361992;28;20021;-72
2021/03/05 09:01:28;;;;;;;3.97;2.58;;;4.00;99.90;;;;;;8347673;28;20032;-71
2021/03/05 09:05:31;;;;;;;4.53;2.78;;;4.10;99.90;;;;;;8362261;28;20074;-74
2021/03/05 09:09:32;;;;;;;3.83;2.80;;;4.20;99.90;;;;;;8340528;28;20100;-74
2021/03/05 09:13:35;;;;;;;6.85;3.22;;;4.20;99.90;;;;;;8340860;28;20021;-74
2021/03/05 09:17:36;;;;;;;4.38;3.20;;;4.10;99.90;;;;;;8360441;28;20100;-73
2021/03/05 09:21:36;;;;;;;5.07;3.28;;;4.10;99.90;;;;;;8361643;28;20636;-74
2021/03/05 09:25:37;;;;;;;5.32;3.40;;;4.30;99.90;;;;;;8361071;28;20040;-74
2021/03/05 09:29:37;;;;;;;6.13;3.45;;;4.40;99.90;;;;;;8356169;28;20055;-74
2021/03/05 09:33:40;;;;;;;7.20;4.47;;;4.60;99.90;;;;;;8358139;28;20032;-74
2021/03/05 09:37:41;;;;;;;6.97;3.80;;;4.40;99.90;;;;;;8359854;28;20083;-72
2021/03/05 09:41:47;;;;;;;5.57;3.80;;;4.60;99.90;;;;;;8357650;28;20036;-72
2021/03/05 09:45:50;;;;;;;6.50;3.72;;;4.70;99.90;;;;;;8333924;28;20029;-72
2021/03/05 09:49:50;;;;;;;5.93;3.45;;;4.60;99.90;;;;;;8361607;28;20107;-72
2021/03/05 09:53:56;;;;;;;7.07;4.30;;;4.70;99.90;;;;;;8344729;28;20590;-72
2021/03/05 09:58:10;;;;;;;8.10;4.45;;;4.60;99.90;;;;;;8342561;28;20032;-72
2021/03/05 10:02:19;;;;;;;8.23;4.75;;;4.60;99.90;;;;;;8339717;28;20029;-72
2021/03/05 10:06:20;;;;;;;9.85;4.90;;;4.50;99.90;;;;;;8346867;28;20060;-72
2021/03/05 10:10:20;;;;;;;8.90;4.47;;;4.60;99.90;;;;;;8357691;28;20107;-72
2021/03/05 10:14:23;;;;;;;7.80;4.53;;;4.70;99.90;;;;;;8337323;28;20032;-72
2021/03/05 10:18:24;;;;;;;7.65;4.45;;;5.20;99.90;;;;;;8353801;28;20210;-72
2021/03/05 10:22:24;;;;;;;8.68;5.00;;;5.60;99.90;;;;;;8357551;28;20033;-72
2021/03/05 10:26:27;;;;;;;7.00;4.60;;;5.80;99.90;;;;;;8359686;28;20390;-72
2021/03/05 10:30:27;;;;;;;9.85;5.10;;;6.00;99.90;;;;;;8357996;28;20017;-73
2021/03/05 10:34:31;;;;;;;7.63;4.63;;;6.20;99.90;;;;;;8358707;28;20040;-72
2021/03/05 10:38:32;;;;;;;7.60;4.32;;;6.80;99.90;;;;;;8341358;28;20063;-72
2021/03/05 10:42:33;;;;;;;8.40;4.75;;;7.00;99.90;;;;;;8358538;28;20618;-72
2021/03/05 10:46:33;;;;;;;6.93;4.53;;;6.80;99.90;;;;;;8358078;28;20036;-73
2021/03/05 10:50:34;;;;;;;7.32;4.60;;;6.90;99.90;;;;;;8356252;28;20515;-73
2021/03/05 10:54:34;;;;;;;7.43;4.70;;;7.20;99.90;;;;;;8337837;28;20067;-73
2021/03/05 10:58:35;;;;;;;8.68;4.50;;;7.10;99.90;;;;;;8343309;28;20503;-71
2021/03/05 11:02:35;;;;;;;7.05;4.63;;;6.80;99.90;;;;;;8358358;28;20031;-71
2021/03/05 11:06:36;;;;;;;8.38;5.05;;;6.50;99.90;;;;;;8341485;28;20029;-72
2021/03/05 11:10:37;;;;;;;8.60;5.00;;;6.40;99.90;;;;;;8359836;28;20033;-71
2021/03/05 11:14:37;;;;;;;7.93;4.55;;;6.50;99.90;;;;;;8360426;28;20167;-71
2021/03/05 11:18:38;;;;;;;6.57;4.13;;;6.70;99.90;;;;;;8358929;28;20025;-72
2021/03/05 11:22:39;;;;;;;7.60;4.40;;;6.50;99.90;;;;;;8330677;28;20052;-71
2021/03/05 11:26:39;;;;;;;6.55;3.95;;;6.10;99.90;;;;;;8308890;28;20396;-71
2021/03/05 11:30:43;;;;;;;5.53;3.47;;;5.70;99.90;;;;;;8330991;28;20458;-71
2021/03/05 11:34:43;;;;;;;6.53;3.70;;;5.50;99.90;;;;;;8340584;28;20032;-71
2021/03/05 11:38:46;;;;;;;5.53;3.72;;;5.80;99.90;;;;;;8338067;28;20476;-71
2021/03/05 11:42:46;;;;;;;5.50;3.88;;;6.20;99.90;;;;;;8359394;28;20477;-71
2021/03/05 11:46:49;;;;;;;7.07;4.28;;;6.40;99.90;;;;;;8338915;28;20067;-71
2021/03/05 11:50:49;;;;;;;6.40;3.80;;;6.70;99.90;;;;;;8341667;28;20024;-71
2021/03/05 11:54:50;;;;;;;5.93;3.70;;;6.50;99.90;;;;;;8340080;28;20502;-72
2021/03/05 11:58:50;;;;;;;5.93;4.00;;;6.40;99.90;;;;;;8360596;28;20041;-71
2021/03/05 12:02:51;;;;;;;7.18;4.15;;;6.30;99.90;;;;;;8347320;28;20399;-71
2021/03/05 12:06:51;;;;;;;6.05;4.40;;;6.20;99.90;;;;;;8347866;28;20188;-72
2021/03/05 12:10:52;;;;;;;8.20;4.63;;;6.20;99.90;;;;;;8363090;28;20071;-72
2021/03/05 12:14:53;;;;;;;6.15;3.78;;;6.60;99.90;;;;;;8361888;28;20021;-72
2021/03/05 12:18:53;;;;;;;7.38;4.30;;;7.10;99.90;;;;;;8344264;28;20025;-71
2021/03/05 12:22:54;;;;;;;13.90;7.72;;;7.30;99.90;;;;;;8343210;28;20642;-72
2021/03/05 12:26:54;;;;;;;11.13;6.20;;;7.30;99.90;;;;;;8356195;28;20040;-72
2021/03/05 12:30:55;;;;;;;6.88;4.03;;;7.30;99.90;;;;;;8346070;28;20025;-71
2021/03/05 12:34:55;;;;;;;7.90;4.78;;;7.20;99.90;;;;;;8362089;28;20446;-72
2021/03/05 12:38:56;;;;;;;9.55;5.53;;;7.00;99.90;;;;;;8363135;28;20025;-72
2021/03/05 12:42:57;;;;;;;5.90;4.00;;;6.70;99.90;;;;;;8359074;28;20679;-72
2021/03/05 12:46:58;;;;;;;6.07;4.13;;;6.50;99.90;;;;;;8345785;28;20075;-72
2021/03/05 12:50:58;;;;;;;6.85;4.13;;;6.60;99.90;;;;;;8345153;28;20380;-72
2021/03/05 12:54:59;;;;;;;6.63;4.30;;;6.90;99.90;;;;;;8345001;28;20719;-72
2021/03/05 12:58:59;;;;;;;7.28;3.72;;;7.10;99.90;;;;;;8360281;28;20051;-72
2021/03/05 13:03:00;;;;;;;7.60;4.20;;;7.10;99.90;;;;;;8362219;28;20092;-72
2021/03/05 13:07:00;;;;;;;5.57;3.80;;;7.10;99.90;;;;;;8361613;28;20025;-72
2021/03/05 13:11:01;;;;;;;6.03;3.90;;;6.80;99.90;;;;;;8360170;28;20070;-72
2021/03/05 13:15:02;;;;;;;6.72;3.88;;;6.70;99.90;;;;;;8345368;28;20021;-72
2021/03/05 13:19:03;;;;;;;7.82;5.00;;;6.50;99.90;;;;;;8345307;28;20025;-72
2021/03/05 13:23:04;;;;;;;7.20;4.10;;;6.40;99.90;;;;;;8360551;28;20025;-72
2021/03/05 13:27:05;;;;;;;5.80;3.83;;;6.40;99.90;;;;;;8344606;28;20036;-72
2021/03/05 13:31:05;;;;;;;6.35;3.97;;;6.30;99.90;;;;;;8356366;28;20075;-72
2021/03/05 13:35:07;;;;;;;6.28;3.80;;;6.50;99.90;;;;;;8342851;28;20017;-72
2021/03/05 13:39:08;;;;;;;6.30;3.80;;;6.50;99.90;;;;;;8360515;28;20013;-72
2021/03/05 13:43:08;;;;;;;5.63;3.55;;;6.60;99.90;;;;;;8359707;28;20045;-72
2021/03/05 13:47:09;;;;;;;33.97;17.10;;;6.60;99.90;;;;;;8361250;28;20029;-72
2021/03/05 13:51:09;;;;;;;5.88;3.75;;;6.10;99.90;;;;;;8360743;28;20482;-72
2021/03/05 13:55:10;;;;;;;12.10;6.20;;;5.90;99.90;;;;;;8340773;28;20079;-72
2021/03/05 13:59:11;;;;;;;6.15;4.30;;;5.90;99.90;;;;;;8341250;28;20108;-72
2021/03/05 14:03:11;;;;;;;14.25;8.52;;;6.10;99.90;;;;;;8357729;28;20063;-72
2021/03/05 14:07:12;;;;;;;17.23;7.53;;;6.10;99.90;;;;;;8359623;28;20033;-72
2021/03/05 14:11:12;;;;;;;16.65;7.47;;;5.90;99.90;;;;;;8343398;28;20021;-72
2021/03/05 14:15:14;;;;;;;8.68;4.82;;;5.80;99.90;;;;;;8343595;28;20620;-72
2021/03/05 14:19:14;;;;;;;8.77;4.93;;;5.70;99.90;;;;;;8360162;28;20152;-72
2021/03/05 14:23:17;;;;;;;6.28;4.13;;;5.70;99.90;;;;;;8358855;28;20029;-73
2021/03/05 14:27:17;;;;;;;7.68;4.53;;;5.60;99.90;;;;;;8356530;28;20033;-72
2021/03/05 14:31:18;;;;;;;8.02;4.45;;;5.80;99.90;;;;;;8356989;28;20492;-73
2021/03/05 14:35:18;;;;;;;8.52;4.65;;;5.70;99.90;;;;;;8341453;28;20112;-72
2021/03/05 14:39:19;;;;;;;9.02;4.57;;;5.70;99.90;;;;;;8354350;28;20104;-72
2021/03/05 14:43:20;;;;;;;8.63;4.75;;;5.90;99.90;;;;;;8354100;28;20062;-72
2021/03/05 14:47:21;;;;;;;6.72;4.10;;;5.80;99.90;;;;;;8353030;28;20489;-73
2021/03/05 14:51:22;;;;;;;8.10;4.95;;;5.80;99.90;;;;;;8356926;28;20028;-72
2021/03/05 14:55:23;;;;;;;10.07;6.18;;;5.80;99.90;;;;;;8341259;28;20048;-72
2021/03/05 14:59:24;;;;;;;9.55;4.75;;;5.70;99.90;;;;;;8335017;28;20033;-72
2021/03/05 15:03:25;;;;;;;9.00;4.82;;;5.60;99.90;;;;;;8353158;28;21725;-72
2021/03/05 15:07:25;;;;;;;7.07;4.50;;;5.40;99.90;;;;;;8356466;28;20021;-72
2021/03/05 15:11:26;;;;;;;6.82;4.30;;;5.30;99.90;;;;;;8356147;28;20475;-72
2021/03/05 15:15:27;;;;;;;6.38;3.75;;;5.30;99.90;;;;;;8341546;28;20029;-72
2021/03/05 15:19:27;;;;;;;9.55;4.60;;;5.20;99.90;;;;;;8355709;28;20535;-72
2021/03/05 15:23:28;;;;;;;8.68;4.85;;;5.20;99.90;;;;;;8357352;28;20123;-72
2021/03/05 15:27:29;;;;;;;10.10;5.07;;;5.20;99.90;;;;;;8355732;28;20025;-72
2021/03/05 15:31:29;;;;;;;8.60;5.15;;;5.10;99.90;;;;;;8335287;28;22088;-72
2021/03/05 15:35:30;;;;;;;9.93;5.60;;;5.00;99.90;;;;;;8332863;28;20048;-72
2021/03/05 15:39:30;;;;;;;10.88;5.95;;;4.90;99.90;;;;;;8345811;28;20017;-73
2021/03/05 15:43:31;;;;;;;11.48;5.70;;;4.90;99.90;;;;;;8354212;28;20045;-72
2021/03/05 15:47:32;;;;;;;11.95;4.95;;;4.80;99.90;;;;;;8353767;28;20029;-72
2021/03/05 15:51:32;;;;;;;9.85;5.65;;;4.70;99.90;;;;;;8357717;28;20025;-72
2021/03/05 15:55:33;;;;;;;10.05;5.85;;;4.70;99.90;;;;;;8366378;28;20087;-72
2021/03/05 15:59:33;;;;;;;10.90;5.85;;;4.70;99.90;;;;;;8339786;28;20492;-72
2021/03/05 16:03:34;;;;;;;8.52;5.50;;;4.70;99.90;;;;;;8343726;28;20025;-72
2021/03/05 16:07:34;;;;;;;10.23;5.72;;;4.70;99.90;;;;;;8359529;28;20036;-73
2021/03/05 16:11:35;;;;;;;10.10;5.80;;;4.70;99.90;;;;;;8351451;28;20025;-73
2021/03/05 16:15:36;;;;;;;10.52;5.78;;;4.60;99.90;;;;;;8342927;28;20044;-72
2021/03/05 16:19:36;;;;;;;9.02;5.22;;;4.60;99.90;;;;;;8339719;28;20025;-72
2021/03/05 16:23:37;;;;;;;11.75;6.07;;;4.50;99.90;;;;;;8360260;28;20710;-70
2021/03/05 16:27:37;;;;;;;11.32;5.57;;;4.50;99.90;;;;;;8336175;28;20071;-71
2021/03/05 16:31:39;;;;;;;10.30;5.82;;;4.40;99.90;;;;;;8349634;28;20036;-71
2021/03/05 16:35:41;;;;;;;10.23;5.65;;;4.40;99.90;;;;;;8341492;28;20075;-71
2021/03/05 16:39:43;;;;;;;8.80;5.38;;;4.30;99.90;;;;;;8342394;28;20687;-71
2021/03/05 16:43:44;;;;;;;9.63;5.60;;;4.10;99.90;;;;;;8340665;28;20056;-71
2021/03/05 16:47:46;;;;;;;11.15;5.75;;;4.10;99.90;;;;;;8360771;28;20029;-71
2021/03/05 16:51:47;;;;;;;12.05;6.28;;;4.10;99.90;;;;;;8340994;28;20112;-72
2021/03/05 16:55:47;;;;;;;10.05;5.47;;;4.10;99.90;;;;;;8360316;28;20033;-71
2021/03/05 16:59:49;;;;;;;7.97;5.00;;;4.20;99.90;;;;;;8342207;28;20027;-70
2021/03/05 17:03:50;;;;;;;7.65;4.03;;;4.00;99.90;;;;;;8371854;28;20122;-71
2021/03/05 17:07:51;;;;;;;7.75;4.40;;;3.80;99.90;;;;;;8365674;28;20063;-70
2021/03/05 17:11:51;;;;;;;6.78;4.00;;;3.60;99.90;;;;;;8344397;28;20123;-70
2021/03/05 17:15:52;;;;;;;7.57;3.97;;;3.60;99.90;;;;;;8359271;28;20029;-71
2021/03/05 17:19:53;;;;;;;6.28;4.13;;;3.40;99.90;;;;;;8333769;28;20052;-71
2021/03/05 17:23:53;;;;;;;6.55;4.20;;;3.30;99.90;;;;;;8344615;28;20032;-70
2021/03/05 17:27:54;;;;;;;8.48;4.47;;;3.30;99.90;;;;;;8356294;28;20036;-70
2021/03/05 17:31:54;;;;;;;7.30;4.03;;;3.20;99.90;;;;;;8358785;28;20025;-71
2021/03/05 17:35:55;;;;;;;6.43;4.05;;;3.10;99.90;;;;;;8360493;28;20201;-70
2021/03/05 17:39:56;;;;;;;8.57;5.03;;;3.10;99.90;;;;;;8354767;28;20079;-71
2021/03/05 17:43:56;;;;;;;8.43;5.03;;;3.00;99.90;;;;;;8341716;28;20017;-71
2021/03/05 17:47:57;;;;;;;8.68;5.10;;;3.00;99.90;;;;;;8341486;28;20083;-68
2021/03/05 17:51:58;;;;;;;13.45;7.32;;;3.00;99.90;;;;;;8352795;28;20558;-70
2021/03/05 17:55:58;;;;;;;10.10;4.82;;;3.00;99.90;;;;;;8363398;28;20028;-70
2021/03/05 17:59:58;;;;;;;6.85;4.20;;;2.80;99.90;;;;;;8374722;28;20533;-71
2021/03/05 18:04:01;;;;;;;7.65;4.88;;;2.80;99.90;;;;;;8364434;28;20108;-71
2021/03/05 18:08:02;;;;;;;6.75;4.57;;;2.80;99.90;;;;;;8366165;28;20031;-70
2021/03/05 18:12:03;;;;;;;10.73;6.90;;;2.70;99.90;;;;;;8340486;28;20032;-72
2021/03/05 18:16:04;;;;;;;17.27;11.38;;;2.80;99.90;;;;;;8359194;28;20506;-71
2021/03/05 18:20:05;;;;;;;7.97;4.43;;;2.60;99.90;;;;;;8338702;28;20040;-70
2021/03/05 18:24:07;;;;;;;8.55;5.53;;;2.60;99.90;;;;;;8349015;28;20067;-71
2021/03/05 18:28:08;;;;;;;8.20;5.18;;;2.50;99.90;;;;;;8347482;28;20033;-71
2021/03/05 18:32:09;;;;;;;12.35;7.35;;;2.40;99.90;;;;;;8322193;28;20063;-70
2021/03/05 18:36:09;;;;;;;8.15;5.35;;;2.40;99.90;;;;;;8326975;28;20021;-70
2021/03/05 18:40:11;;;;;;;12.32;8.93;;;2.40;99.90;;;;;;8333511;28;20040;-71
2021/03/05 18:44:11;;;;;;;9.27;5.57;;;2.40;99.90;;;;;;8332511;28;20087;-71
2021/03/05 18:48:12;;;;;;;7.30;4.93;;;2.30;99.90;;;;;;8325924;28;20736;-72
2021/03/05 18:52:13;;;;;;;9.80;5.85;;;2.40;99.90;;;;;;8322660;28;20044;-71
2021/03/05 18:56:14;;;;;;;8.93;5.93;;;2.20;99.90;;;;;;8323447;28;20037;-70
2021/03/05 19:00:15;;;;;;;8.32;5.15;;;2.10;99.90;;;;;;8327187;28;21749;-70
2021/03/05 19:04:15;;;;;;;11.05;4.97;;;2.10;99.90;;;;;;8342046;28;20032;-71
2021/03/05 19:08:17;;;;;;;4.28;2.50;;;2.10;99.90;;;;;;8344224;28;20094;-70
2021/03/05 19:12:17;;;;;;;7.45;4.55;;;2.10;99.90;;;;;;8349763;28;20025;-71
2021/03/05 19:16:18;;;;;;;8.57;4.78;;;2.10;99.90;;;;;;8339411;28;20111;-70
2021/03/05 19:20:19;;;;;;;7.45;4.18;;;2.10;99.90;;;;;;8349141;28;20036;-70
2021/03/05 19:24:19;;;;;;;7.45;4.35;;;2.10;99.90;;;;;;8347034;28;20048;-71
2021/03/05 19:28:20;;;;;;;6.88;3.95;;;2.10;99.90;;;;;;8344089;28;20024;-71
2021/03/05 19:32:21;;;;;;;10.02;4.68;;;2.20;99.90;;;;;;8356579;28;20028;-70
2021/03/05 19:36:21;;;;;;;10.35;5.00;;;2.10;99.90;;;;;;8355713;28;20455;-71
2021/03/05 19:40:22;;;;;;;9.18;5.07;;;2.20;99.90;;;;;;8352908;28;20036;-71
2021/03/05 19:44:23;;;;;;;8.55;4.68;;;2.30;99.90;;;;;;8335917;28;20430;-70
2021/03/05 19:48:24;;;;;;;8.48;4.85;;;2.20;99.90;;;;;;8350600;28;20037;-70
2021/03/05 19:52:25;;;;;;;8.93;4.93;;;2.30;99.90;;;;;;8353554;28;20037;-70
2021/03/05 19:56:25;;;;;;;9.48;4.95;;;2.30;99.90;;;;;;8347036;28;20040;-71
2021/03/05 20:00:26;;;;;;;9.90;4.97;;;2.10;99.90;;;;;;8330901;28;20033;-70
2021/03/05 20:04:26;;;;;;;9.13;4.53;;;2.20;99.90;;;;;;8343340;28;20498;-71
2021/03/05 20:08:27;;;;;;;7.72;4.55;;;2.20;99.90;;;;;;8358212;28;20029;-71
2021/03/05 20:12:27;;;;;;;8.63;5.00;;;2.20;99.90;;;;;;8348868;28;20115;-71
2021/03/05 20:16:28;;;;;;;9.02;5.10;;;2.30;99.90;;;;;;8347834;28;20092;-70
2021/03/05 20:20:28;;;;;;;8.32;4.60;;;2.20;99.90;;;;;;8354766;28;20079;-70
2021/03/05 20:24:29;;;;;;;10.55;5.65;;;2.10;99.90;;;;;;8341371;28;20082;-71
2021/03/05 20:28:31;;;;;;;10.13;5.57;;;2.00;99.90;;;;;;8353516;28;20049;-70
2021/03/05 20:32:32;;;;;;;9.27;4.93;;;2.00;99.90;;;;;;8359115;28;20114;-71
2021/03/05 20:36:32;;;;;;;9.32;4.65;;;2.10;99.90;;;;;;8338817;28;20060;-71
2021/03/05 20:40:33;;;;;;;12.68;5.38;;;2.00;99.90;;;;;;8366700;28;20058;-72
2021/03/05 20:44:34;;;;;;;10.20;5.47;;;2.00;99.90;;;;;;8353260;28;20033;-71
2021/03/05 20:48:34;;;;;;;9.95;5.22;;;2.00;99.90;;;;;;8357723;28;20024;-68
2021/03/05 20:52:35;;;;;;;10.10;5.85;;;2.00;99.90;;;;;;8356691;28;20751;-71
2021/03/05 20:56:36;;;;;;;10.23;5.85;;;2.10;99.90;;;;;;8361018;28;20095;-70
2021/03/05 21:00:37;;;;;;;10.65;6.10;;;2.00;99.90;;;;;;8360583;28;20400;-71
2021/03/05 21:04:38;;;;;;;10.90;5.63;;;1.90;99.90;;;;;;8352056;28;20032;-70
2021/03/05 21:08:38;;;;;;;10.38;5.40;;;2.00;99.90;;;;;;8333377;28;20090;-71